createdAt,value
2019-05-17T00:01:22.817Z,17.25
2019-05-17T00:02:57.278Z,15.48
2019-05-17T00:04:32.266Z,15.05
2019-05-17T00:06:07.007Z,14.85
2019-05-17T00:07:42.319Z,15.20
2019-05-17T00:09:17.590Z,14.58
2019-05-17T00:10:52.697Z,13.72
2019-05-17T00:12:27.415Z,14.35
2019-05-17T00:14:02.944Z,14.45
2019-05-17T00:15:37.346Z,14.87
2019-05-17T00:17:12.397Z,15.18
2019-05-17T00:18:46.773Z,17.50
2019-05-17T00:20:21.975Z,18.05
2019-05-17T00:21:56.779Z,17.35
2019-05-17T00:23:31.818Z,17.07
2019-05-17T00:25:07.507Z,17.65
2019-05-17T00:26:42.638Z,16.12
2019-05-17T00:28:17.005Z,15.85
2019-05-17T00:29:51.908Z,17.05
2019-05-17T00:31:26.437Z,15.32
2019-05-17T00:33:01.422Z,14.13
2019-05-17T00:34:37.711Z,15.85
2019-05-17T00:36:12.887Z,15.00
2019-05-17T00:37:47.311Z,16.32
2019-05-17T00:39:23.087Z,15.75
2019-05-17T00:40:57.799Z,15.78
2019-05-17T00:42:32.744Z,15.90
2019-05-17T00:44:07.110Z,14.85
2019-05-17T00:45:42.034Z,14.43
2019-05-17T00:47:17.126Z,14.98
2019-05-17T00:48:52.406Z,13.83
2019-05-17T00:50:27.503Z,16.52
2019-05-17T00:52:03.194Z,14.28
2019-05-17T00:53:37.587Z,15.60
2019-05-17T00:55:13.086Z,15.70
2019-05-17T00:56:47.453Z,16.12
2019-05-17T00:58:22.422Z,14.77
2019-05-17T00:59:56.797Z,14.80
2019-05-17T01:01:31.742Z,16.20
2019-05-17T01:03:07.079Z,15.60
2019-05-17T01:04:42.374Z,15.65
2019-05-17T01:06:17.049Z,15.63
2019-05-17T01:07:52.052Z,14.25
2019-05-17T01:09:27.343Z,14.47
2019-05-17T01:11:02.442Z,14.90
2019-05-17T01:12:37.135Z,14.45
2019-05-17T01:14:12.058Z,15.38
2019-05-17T01:15:47.409Z,15.60
2019-05-17T01:17:23.040Z,14.33
2019-05-17T01:18:57.450Z,14.80
2019-05-17T01:20:32.413Z,14.70
2019-05-17T01:22:07.494Z,15.50
2019-05-17T01:23:42.693Z,15.72
2019-05-17T01:25:17.359Z,15.80
2019-05-17T01:26:52.352Z,14.47
2019-05-17T01:28:27.046Z,14.53
2019-05-17T01:30:02.321Z,15.23
2019-05-17T01:31:37.355Z,16.02
2019-05-17T01:33:12.397Z,15.10
2019-05-17T01:34:47.020Z,15.00
2019-05-17T01:36:22.141Z,15.65
2019-05-17T01:37:56.625Z,15.50
2019-05-17T01:39:33.535Z,15.35
2019-05-17T01:41:08.181Z,15.03
2019-05-17T01:42:43.634Z,15.58
2019-05-17T01:44:18.027Z,16.32
2019-05-17T01:45:53.195Z,17.45
2019-05-17T01:47:27.606Z,18.52
2019-05-17T01:49:02.514Z,17.12
2019-05-17T01:50:37.607Z,16.85
2019-05-17T01:52:12.726Z,16.12
2019-05-17T01:53:47.454Z,18.65
2019-05-17T01:55:22.368Z,17.85
2019-05-17T01:56:56.989Z,17.32
2019-05-17T01:58:31.941Z,17.23
2019-05-17T02:00:07.133Z,16.93
2019-05-17T02:01:43.326Z,17.60
2019-05-17T02:03:17.726Z,18.92
2019-05-17T02:04:53.046Z,19.40
2019-05-17T02:06:27.431Z,19.40
2019-05-17T02:08:02.986Z,18.15
2019-05-17T02:09:41.332Z,18.37
2019-05-17T02:11:14.076Z,20.32
2019-05-17T02:12:49.254Z,17.60
2019-05-17T02:14:26.634Z,17.62
2019-05-17T02:16:00.384Z,17.17
2019-05-17T02:17:37.325Z,18.45
2019-05-17T02:19:11.421Z,19.12
2019-05-17T02:20:46.525Z,18.35
2019-05-17T02:22:21.210Z,16.70
2019-05-17T02:23:57.139Z,18.87
2019-05-17T02:25:31.674Z,16.07
2019-05-17T02:27:07.014Z,15.97
2019-05-17T02:28:41.542Z,15.20
2019-05-17T02:30:17.329Z,15.80
2019-05-17T02:31:52.570Z,16.10
2019-05-17T02:33:28.333Z,15.10
2019-05-17T02:35:03.524Z,14.90
2019-05-17T02:36:38.551Z,16.65
2019-05-17T02:38:13.339Z,17.30
2019-05-17T02:39:58.346Z,18.50
2019-05-17T02:41:24.882Z,18.30
2019-05-17T02:43:03.085Z,18.02
2019-05-17T02:44:36.293Z,16.60
2019-05-17T02:46:13.677Z,17.55
2019-05-17T02:47:47.660Z,17.42
2019-05-17T02:49:23.583Z,18.15
2019-05-17T02:50:58.214Z,17.50
2019-05-17T02:52:33.165Z,18.60
2019-05-17T02:54:07.661Z,18.23
2019-05-17T02:55:43.563Z,17.63
2019-05-17T02:57:18.547Z,17.90
2019-05-17T02:58:53.790Z,17.55
2019-05-17T03:00:28.172Z,17.37
2019-05-17T03:02:03.768Z,17.73
2019-05-17T03:03:38.560Z,16.97
2019-05-17T03:05:15.028Z,17.23
2019-05-17T03:06:52.972Z,17.57
2019-05-17T03:08:26.203Z,16.30
2019-05-17T03:10:13.625Z,15.55
2019-05-17T03:11:38.076Z,16.02
2019-05-17T03:13:17.051Z,16.67
2019-05-17T03:14:52.663Z,15.80
2019-05-17T03:16:25.851Z,16.40
2019-05-17T03:18:03.786Z,16.00
2019-05-17T03:19:36.956Z,17.80
2019-05-17T03:21:13.479Z,18.80
2019-05-17T03:22:48.193Z,18.42
2019-05-17T03:24:23.188Z,18.23
2019-05-17T03:25:57.928Z,19.07
2019-05-17T03:27:33.860Z,17.95
2019-05-17T03:29:08.340Z,16.77
2019-05-17T03:30:46.629Z,17.23
2019-05-17T03:32:25.874Z,18.07
2019-05-17T03:33:57.725Z,16.77
2019-05-17T03:35:37.868Z,17.98
2019-05-17T03:37:09.000Z,17.15
2019-05-17T03:38:43.722Z,17.37
2019-05-17T03:40:46.318Z,20.03
2019-05-17T03:41:55.472Z,19.37
2019-05-17T03:43:30.647Z,17.73
2019-05-17T03:45:05.590Z,16.73
2019-05-17T03:46:42.529Z,17.35
2019-05-17T03:48:17.447Z,19.23
2019-05-17T03:49:53.186Z,18.05
2019-05-17T03:51:28.064Z,17.15
2019-05-17T03:53:03.184Z,18.40
2019-05-17T03:54:37.834Z,17.90
2019-05-17T03:56:13.344Z,18.32
2019-05-17T03:57:47.938Z,19.07
2019-05-17T03:59:24.238Z,17.95
2019-05-17T04:00:58.892Z,19.17
2019-05-17T04:02:33.896Z,18.97
2019-05-17T04:04:08.363Z,18.50
2019-05-17T04:05:43.363Z,17.60
2019-05-17T04:07:17.751Z,18.10
2019-05-17T04:08:52.877Z,18.00
2019-05-17T04:10:27.726Z,16.93
2019-05-17T04:12:03.078Z,18.73
2019-05-17T04:13:37.536Z,17.33
2019-05-17T04:15:14.122Z,17.57
2019-05-17T04:16:48.669Z,19.33
2019-05-17T04:18:23.786Z,18.95
2019-05-17T04:19:58.236Z,18.52
2019-05-17T04:21:34.304Z,19.90
2019-05-17T04:23:08.901Z,19.63
2019-05-17T04:24:44.098Z,18.77
2019-05-17T04:26:18.614Z,18.45
2019-05-17T04:27:53.949Z,17.67
2019-05-17T04:29:28.342Z,17.33
2019-05-17T04:31:03.492Z,18.13
2019-05-17T04:32:37.941Z,17.93
2019-05-17T04:34:13.648Z,18.97
2019-05-17T04:35:48.231Z,18.57
2019-05-17T04:37:23.223Z,21.10
2019-05-17T04:38:57.918Z,22.37
2019-05-17T04:40:33.936Z,20.60
2019-05-17T04:42:09.095Z,17.47
2019-05-17T04:43:44.023Z,18.10
2019-05-17T04:45:18.571Z,18.97
2019-05-17T04:46:53.770Z,18.67
2019-05-17T04:48:28.254Z,17.40
2019-05-17T04:50:04.164Z,16.50
2019-05-17T04:51:38.865Z,16.13
2019-05-17T04:53:14.140Z,16.57
2019-05-17T04:54:48.655Z,16.43
2019-05-17T04:56:23.577Z,16.30
2019-05-17T04:57:58.249Z,15.17
2019-05-17T04:59:34.147Z,15.20
2019-05-17T05:01:08.744Z,15.83
2019-05-17T05:02:44.401Z,14.20
2019-05-17T05:04:18.967Z,14.77
2019-05-17T05:05:54.238Z,15.27
2019-05-17T05:07:29.028Z,15.17
2019-05-17T05:09:06.256Z,15.00
2019-05-17T05:10:42.693Z,16.00
2019-05-17T05:12:17.894Z,15.73
2019-05-17T05:13:53.097Z,15.10
2019-05-17T05:15:43.324Z,16.17
2019-05-17T05:17:17.287Z,16.97
2019-05-17T05:18:52.048Z,17.77
2019-05-17T05:20:27.448Z,18.27
2019-05-17T05:22:04.631Z,16.77
2019-05-17T05:23:38.718Z,17.33
2019-05-17T05:25:13.965Z,18.40
2019-05-17T05:26:49.141Z,17.43
2019-05-17T05:28:23.882Z,16.97
2019-05-17T05:29:59.692Z,17.40
2019-05-17T05:31:34.500Z,17.40
2019-05-17T05:33:12.551Z,19.67
2019-05-17T05:34:46.825Z,17.83
2019-05-17T05:36:22.426Z,17.57
2019-05-17T05:37:57.212Z,17.50
2019-05-17T05:39:32.202Z,15.70
2019-05-17T05:41:06.657Z,15.13
2019-05-17T05:42:42.534Z,14.63
2019-05-17T05:44:17.502Z,14.37
2019-05-17T05:45:53.680Z,14.83
2019-05-17T05:47:28.206Z,13.97
2019-05-17T05:49:03.211Z,13.80
2019-05-17T05:50:37.698Z,13.00
2019-05-17T05:52:12.955Z,11.77
2019-05-17T05:53:47.683Z,12.80
2019-05-17T05:55:23.525Z,12.80
2019-05-17T05:56:57.973Z,12.90
2019-05-17T05:58:32.901Z,11.80
2019-05-17T06:00:08.381Z,12.73
2019-05-17T06:01:43.317Z,12.47
2019-05-17T06:03:17.678Z,12.57
2019-05-17T06:04:52.646Z,12.80
2019-05-17T06:06:27.015Z,12.70
2019-05-17T06:08:02.879Z,12.83
2019-05-17T06:09:37.578Z,12.83
2019-05-17T06:11:12.551Z,12.70
2019-05-17T06:12:47.199Z,13.10
2019-05-17T06:14:22.119Z,12.73
2019-05-17T06:15:56.569Z,12.50
2019-05-17T06:17:31.849Z,12.33
2019-05-17T06:19:06.366Z,12.57
2019-05-17T06:20:41.741Z,13.00
2019-05-17T06:22:16.458Z,15.13
2019-05-17T06:23:51.684Z,16.10
2019-05-17T06:25:26.511Z,14.90
2019-05-17T06:27:02.016Z,13.70
2019-05-17T06:28:36.984Z,15.27
2019-05-17T06:30:12.950Z,15.07
2019-05-17T06:31:47.443Z,13.80
2019-05-17T06:33:30.368Z,14.10
2019-05-17T06:34:58.931Z,14.67
2019-05-17T06:36:33.939Z,14.30
2019-05-17T06:38:08.597Z,14.67
2019-05-17T06:39:43.598Z,15.67
2019-05-17T06:41:18.070Z,16.07
2019-05-17T06:42:53.090Z,15.90
2019-05-17T06:44:27.744Z,16.93
2019-05-17T06:46:02.745Z,17.30
2019-05-17T06:47:37.219Z,15.60
2019-05-17T06:49:12.163Z,15.37
2019-05-17T06:50:46.555Z,14.50
2019-05-17T06:52:22.558Z,15.27
2019-05-17T06:53:57.514Z,14.73
2019-05-17T06:55:32.502Z,15.67
2019-05-17T06:57:06.908Z,14.77
2019-05-17T06:58:42.199Z,16.47
2019-05-17T07:00:20.697Z,15.10
2019-05-17T07:01:53.607Z,14.67
2019-05-17T07:03:29.453Z,15.77
2019-05-17T07:05:06.767Z,15.10
2019-05-17T07:06:41.162Z,16.00
2019-05-17T07:08:16.107Z,15.73
2019-05-17T07:09:50.498Z,16.00
2019-05-17T07:11:25.422Z,15.57
2019-05-17T07:13:01.966Z,16.10
2019-05-17T07:14:36.551Z,16.33
2019-05-17T07:16:11.036Z,16.40
2019-05-17T07:17:45.957Z,15.93
2019-05-17T07:19:20.338Z,17.03
2019-05-17T07:20:55.270Z,16.70
2019-05-17T07:22:29.789Z,17.27
2019-05-17T07:24:04.769Z,17.50
2019-05-17T07:25:39.725Z,17.93
2019-05-17T07:27:15.252Z,18.83
2019-05-17T07:28:49.859Z,17.63
2019-05-17T07:30:24.941Z,17.60
2019-05-17T07:32:00.372Z,17.40
2019-05-17T07:33:35.427Z,17.07
2019-05-17T07:35:11.108Z,16.83
2019-05-17T07:36:46.269Z,17.77
2019-05-17T07:38:20.713Z,16.63
2019-05-17T07:40:01.160Z,17.97
2019-05-17T07:41:32.006Z,18.27
2019-05-17T07:43:13.646Z,17.43
2019-05-17T07:44:44.105Z,18.37
2019-05-17T07:46:20.642Z,19.23
2019-05-17T07:47:55.278Z,17.87
2019-05-17T07:49:30.957Z,18.30
2019-05-17T07:51:05.704Z,17.60
2019-05-17T07:52:40.953Z,16.40
2019-05-17T07:54:15.357Z,16.47
2019-05-17T07:55:50.722Z,16.73
2019-05-17T07:57:25.697Z,15.63
2019-05-17T07:59:00.686Z,16.93
2019-05-17T08:00:35.355Z,15.67
2019-05-17T08:02:10.747Z,16.20
2019-05-17T08:03:45.812Z,15.77
2019-05-17T08:05:21.397Z,14.73
2019-05-17T08:06:56.010Z,15.33
2019-05-17T08:08:31.489Z,13.83
2019-05-17T08:10:06.319Z,13.97
2019-05-17T08:11:41.347Z,15.13
2019-05-17T08:13:27.284Z,13.90
2019-05-17T08:14:52.702Z,13.53
2019-05-17T08:16:27.210Z,13.00
2019-05-17T08:18:02.153Z,12.70
2019-05-17T08:19:36.967Z,12.80
2019-05-17T08:21:11.890Z,12.30
2019-05-17T08:22:46.310Z,11.67
2019-05-17T08:24:21.500Z,12.40
2019-05-17T08:25:56.438Z,11.90
2019-05-17T08:27:31.978Z,11.57
2019-05-17T08:29:06.793Z,11.60
2019-05-17T08:30:42.755Z,10.80
2019-05-17T08:32:17.539Z,9.67
2019-05-17T08:33:52.516Z,9.57
2019-05-17T08:35:26.893Z,8.57
2019-05-17T08:37:02.197Z,9.43
2019-05-17T08:38:39.211Z,8.80
2019-05-17T08:40:15.353Z,9.57
2019-05-17T08:41:49.954Z,9.13
2019-05-17T08:43:38.393Z,9.77
2019-05-17T08:45:01.655Z,9.27
2019-05-17T08:46:39.396Z,8.97
2019-05-17T08:48:13.932Z,8.30
2019-05-17T08:49:49.766Z,8.73
2019-05-17T08:51:24.772Z,9.63
2019-05-17T08:53:00.642Z,8.73
2019-05-17T08:54:35.764Z,9.07
2019-05-17T08:56:11.314Z,7.40
2019-05-17T08:57:46.096Z,7.10
2019-05-17T08:59:21.642Z,7.60
2019-05-17T09:00:56.698Z,8.23
2019-05-17T09:02:31.642Z,8.30
2019-05-17T09:04:06.070Z,8.80
2019-05-17T09:05:41.820Z,8.47
2019-05-17T09:07:16.469Z,8.83
2019-05-17T09:08:51.390Z,8.27
2019-05-17T09:10:25.760Z,7.73
2019-05-17T09:12:00.669Z,8.00
2019-05-17T09:13:35.514Z,7.90
2019-05-17T09:15:11.517Z,7.73
2019-05-17T09:16:46.134Z,7.33
2019-05-17T09:18:21.084Z,7.57
2019-05-17T09:19:55.464Z,7.93
2019-05-17T09:21:31.289Z,7.33
2019-05-17T09:23:05.963Z,6.37
2019-05-17T09:24:41.248Z,6.70
2019-05-17T09:26:15.967Z,6.60
2019-05-17T09:27:51.256Z,6.40
2019-05-17T09:29:25.696Z,7.27
2019-05-17T09:31:00.951Z,7.50
2019-05-17T09:32:35.340Z,7.10
2019-05-17T09:34:10.246Z,6.90
2019-05-17T09:35:45.022Z,6.80
2019-05-17T09:37:22.537Z,7.30
2019-05-17T09:38:56.544Z,7.27
2019-05-17T09:40:31.734Z,6.57
2019-05-17T09:42:06.555Z,6.37
2019-05-17T09:43:41.863Z,6.30
2019-05-17T09:45:16.438Z,6.70
2019-05-17T09:46:51.374Z,7.20
2019-05-17T09:48:25.731Z,6.33
2019-05-17T09:50:01.851Z,6.47
2019-05-17T09:51:39.491Z,5.43
2019-05-17T09:53:14.560Z,6.30
2019-05-17T09:54:50.475Z,6.53
2019-05-17T09:56:26.034Z,5.67
2019-05-17T09:58:01.308Z,5.33
2019-05-17T09:59:36.718Z,5.07
2019-05-17T10:01:12.482Z,5.57
2019-05-17T10:02:50.535Z,5.70
2019-05-17T10:04:24.982Z,5.90
2019-05-17T10:06:00.374Z,5.87
2019-05-17T10:07:35.319Z,6.30
2019-05-17T10:09:10.694Z,5.70
2019-05-17T10:10:45.776Z,5.97
2019-05-17T10:12:21.207Z,6.03
2019-05-17T10:13:58.942Z,6.07
2019-05-17T10:15:33.349Z,5.80
2019-05-17T10:17:09.866Z,6.40
2019-05-17T10:18:45.362Z,6.17
2019-05-17T10:20:20.350Z,6.57
2019-05-17T10:21:55.715Z,6.07
2019-05-17T10:23:30.691Z,6.07
2019-05-17T10:25:06.371Z,6.70
2019-05-17T10:26:41.335Z,6.47
2019-05-17T10:28:17.064Z,6.00
2019-05-17T10:29:52.031Z,5.93
2019-05-17T10:31:27.578Z,5.97
2019-05-17T10:33:01.951Z,6.40
2019-05-17T10:34:37.170Z,6.20
2019-05-17T10:36:11.834Z,5.97
2019-05-17T10:37:46.827Z,5.83
2019-05-17T10:39:21.187Z,6.30
2019-05-17T10:40:56.114Z,6.57
2019-05-17T10:42:31.024Z,5.93
2019-05-17T10:44:06.022Z,6.27
2019-05-17T10:45:40.525Z,5.80
2019-05-17T10:47:15.615Z,6.13
2019-05-17T10:48:50.273Z,6.17
2019-05-17T10:50:25.211Z,6.73
2019-05-17T10:52:00.000Z,6.17
2019-05-17T10:53:35.302Z,5.90
2019-05-17T10:55:10.608Z,6.93
2019-05-17T10:56:46.069Z,5.90
2019-05-17T10:58:21.410Z,6.53
2019-05-17T10:59:56.390Z,5.80
2019-05-17T11:01:30.996Z,6.10
2019-05-17T11:03:06.075Z,6.50
2019-05-17T11:04:40.662Z,6.00
2019-05-17T11:06:15.672Z,6.40
2019-05-17T11:07:50.667Z,6.93
2019-05-17T11:09:25.729Z,6.83
2019-05-17T11:11:00.143Z,7.47
2019-05-17T11:12:35.143Z,6.57
2019-05-17T11:14:09.562Z,6.63
2019-05-17T11:15:44.490Z,6.70
2019-05-17T11:17:18.938Z,6.47
2019-05-17T11:18:53.863Z,6.37
2019-05-17T11:20:28.495Z,6.90
2019-05-17T11:22:04.306Z,7.47
2019-05-17T11:23:38.723Z,8.87
2019-05-17T11:25:14.402Z,8.07
2019-05-17T11:26:49.161Z,7.47
2019-05-17T11:28:25.002Z,7.77
2019-05-17T11:29:59.989Z,7.83
2019-05-17T11:31:35.778Z,8.20
2019-05-17T11:33:11.601Z,7.73
2019-05-17T11:34:46.951Z,7.70
2019-05-17T11:36:21.930Z,8.40
2019-05-17T11:37:57.255Z,8.50
2019-05-17T11:39:32.913Z,7.87
2019-05-17T11:41:20.689Z,8.03
2019-05-17T11:42:45.635Z,8.23
2019-05-17T11:44:20.629Z,7.40
2019-05-17T11:45:54.999Z,8.00
2019-05-17T11:47:29.996Z,7.37
2019-05-17T11:49:04.379Z,8.60
2019-05-17T11:50:39.560Z,8.00
2019-05-17T11:52:13.943Z,8.13
2019-05-17T11:53:49.129Z,8.40
2019-05-17T11:55:23.598Z,8.23
2019-05-17T11:56:58.798Z,7.70
2019-05-17T11:58:33.273Z,8.90
2019-05-17T12:00:09.433Z,8.53
2019-05-17T12:01:43.858Z,8.07
2019-05-17T12:03:18.782Z,8.07
2019-05-17T12:04:53.143Z,8.97
2019-05-17T12:06:28.091Z,8.60
2019-05-17T12:08:02.447Z,8.67
2019-05-17T12:09:37.916Z,9.20
2019-05-17T12:11:12.959Z,8.57
2019-05-17T12:12:47.914Z,8.57
2019-05-17T12:14:22.692Z,9.13
2019-05-17T12:15:58.511Z,9.27
2019-05-17T12:17:33.332Z,8.90
2019-05-17T12:19:08.922Z,8.50
2019-05-17T12:20:43.743Z,9.13
2019-05-17T12:22:19.790Z,8.63
2019-05-17T12:23:54.574Z,8.63
2019-05-17T12:25:30.179Z,9.17
2019-05-17T12:27:05.113Z,8.93
2019-05-17T12:28:40.175Z,9.30
2019-05-17T12:30:15.218Z,8.73
2019-05-17T12:31:50.795Z,9.43
2019-05-17T12:33:25.224Z,9.20
2019-05-17T12:35:00.865Z,9.10
2019-05-17T12:36:35.368Z,8.27
2019-05-17T12:38:10.540Z,8.50
2019-05-17T12:39:45.340Z,9.10
2019-05-17T12:41:20.430Z,9.00
2019-05-17T12:42:54.962Z,9.57
2019-05-17T12:44:30.293Z,8.50
2019-05-17T12:46:04.906Z,9.00
2019-05-17T12:47:40.240Z,10.03
2019-05-17T12:49:15.022Z,9.90
2019-05-17T12:50:50.298Z,9.90
2019-05-17T12:52:24.895Z,9.70
2019-05-17T12:54:00.436Z,10.00
2019-05-17T12:55:35.996Z,9.10
2019-05-17T12:57:11.384Z,9.80
2019-05-17T12:58:46.054Z,10.10
2019-05-17T13:00:22.203Z,9.43
2019-05-17T13:01:56.981Z,9.10
2019-05-17T13:03:31.903Z,9.10
2019-05-17T13:05:06.509Z,9.43
2019-05-17T13:06:41.626Z,9.43
2019-05-17T13:08:16.382Z,10.10
2019-05-17T13:09:51.457Z,9.40
2019-05-17T13:11:26.139Z,9.33
2019-05-17T13:13:01.982Z,9.63
2019-05-17T13:14:36.618Z,9.77
2019-05-17T13:16:17.929Z,9.43
2019-05-17T13:17:47.820Z,9.77
2019-05-17T13:19:25.308Z,9.83
2019-05-17T13:20:59.412Z,9.90
2019-05-17T13:22:34.999Z,9.63
2019-05-17T13:24:09.796Z,9.47
2019-05-17T13:25:45.737Z,9.97
2019-05-17T13:27:20.865Z,10.17
2019-05-17T13:28:56.148Z,10.30
2019-05-17T13:30:30.567Z,11.00
2019-05-17T13:32:05.634Z,10.43
2019-05-17T13:33:39.991Z,10.43
2019-05-17T13:35:15.533Z,10.17
2019-05-17T13:36:51.019Z,10.33
2019-05-17T13:38:26.166Z,10.63
2019-05-17T13:40:00.615Z,10.17
2019-05-17T13:41:35.566Z,10.07
2019-05-17T13:43:10.035Z,10.00
2019-05-17T13:44:45.295Z,10.07
2019-05-17T13:46:32.036Z,9.67
2019-05-17T13:47:56.941Z,10.67
2019-05-17T13:49:31.638Z,9.87
2019-05-17T13:51:09.578Z,10.67
2019-05-17T13:52:44.044Z,11.33
2019-05-17T13:54:19.039Z,10.40
2019-05-17T13:55:53.414Z,10.40
2019-05-17T13:57:28.692Z,11.10
2019-05-17T13:59:03.326Z,11.10
2019-05-17T14:00:38.687Z,10.70
2019-05-17T14:02:13.944Z,10.97
2019-05-17T14:03:48.930Z,10.53
2019-05-17T14:05:23.656Z,10.47
2019-05-17T14:06:58.681Z,10.50
2019-05-17T14:08:33.194Z,10.93
2019-05-17T14:10:24.537Z,10.80
2019-05-17T14:11:44.974Z,11.70
2019-05-17T14:13:20.235Z,10.93
2019-05-17T14:14:54.705Z,11.03
2019-05-17T14:16:33.911Z,11.03
2019-05-17T14:18:05.942Z,11.37
2019-05-17T14:19:40.870Z,12.03
2019-05-17T14:21:15.756Z,11.60
2019-05-17T14:22:50.836Z,11.10
2019-05-17T14:24:25.264Z,11.17
2019-05-17T14:26:00.269Z,11.93
2019-05-17T14:27:34.741Z,11.57
2019-05-17T14:29:09.707Z,11.97
2019-05-17T14:30:44.469Z,11.00
2019-05-17T14:32:20.044Z,11.13
2019-05-17T14:33:55.073Z,11.87
2019-05-17T14:35:30.927Z,11.93
2019-05-17T14:37:07.640Z,10.87
2019-05-17T14:38:43.356Z,12.63
2019-05-17T14:40:18.297Z,12.43
2019-05-17T14:41:53.274Z,13.23
2019-05-17T14:43:31.280Z,12.77
2019-05-17T14:45:04.432Z,12.27
2019-05-17T14:46:39.156Z,12.60
2019-05-17T14:48:14.375Z,13.07
2019-05-17T14:49:51.202Z,12.73
2019-05-17T14:51:25.772Z,12.80
2019-05-17T14:53:01.023Z,13.27
2019-05-17T14:54:36.058Z,13.57
2019-05-17T14:56:10.496Z,12.67
2019-05-17T14:57:45.939Z,14.17
2019-05-17T14:59:20.327Z,13.63
2019-05-17T15:00:55.306Z,13.53
2019-05-17T15:02:29.731Z,13.03
2019-05-17T15:04:04.776Z,13.60
2019-05-17T15:05:39.207Z,13.90
2019-05-17T15:07:14.165Z,14.00
2019-05-17T15:08:48.672Z,13.20
2019-05-17T15:10:23.711Z,12.20
2019-05-17T15:11:58.337Z,12.73
2019-05-17T15:13:33.277Z,12.53
2019-05-17T15:15:07.993Z,11.50
2019-05-17T15:16:42.984Z,10.80
2019-05-17T15:18:17.374Z,11.17
2019-05-17T15:19:52.402Z,11.43
2019-05-17T15:21:26.853Z,10.73
2019-05-17T15:23:01.913Z,11.00
2019-05-17T15:24:36.386Z,11.50
2019-05-17T15:26:11.310Z,11.53
2019-05-17T15:27:45.721Z,10.93
2019-05-17T15:29:20.702Z,10.20
2019-05-17T15:30:55.174Z,11.50
2019-05-17T15:32:30.346Z,10.60
2019-05-17T15:34:05.143Z,10.97
2019-05-17T15:35:40.072Z,10.63
2019-05-17T15:37:14.775Z,11.37
2019-05-17T15:38:50.042Z,12.43
2019-05-17T15:40:24.390Z,12.00
2019-05-17T15:41:59.321Z,11.47
2019-05-17T15:43:33.807Z,12.10
2019-05-17T15:45:09.733Z,11.70
2019-05-17T15:46:44.301Z,11.50
2019-05-17T15:48:19.304Z,11.77
2019-05-17T15:49:53.667Z,11.30
2019-05-17T15:51:28.608Z,10.73
2019-05-17T15:53:03.033Z,10.03
2019-05-17T15:54:38.204Z,9.50
2019-05-17T15:56:12.642Z,9.30
2019-05-17T15:57:47.871Z,9.37
2019-05-17T15:59:22.276Z,8.10
2019-05-17T16:00:57.182Z,8.33
2019-05-17T16:02:31.547Z,8.43
2019-05-17T16:04:06.470Z,7.73
2019-05-17T16:05:41.251Z,6.80
2019-05-17T16:07:16.233Z,6.80
2019-05-17T16:08:51.001Z,7.60
2019-05-17T16:10:25.988Z,7.70
2019-05-17T16:12:00.649Z,7.70
2019-05-17T16:13:35.581Z,8.03
2019-05-17T16:15:10.555Z,8.27
2019-05-17T16:16:45.823Z,7.90
2019-05-17T16:18:20.523Z,6.83
2019-05-17T16:19:55.778Z,7.43
2019-05-17T16:21:30.151Z,7.40
2019-05-17T16:23:05.219Z,6.53
2019-05-17T16:24:39.603Z,6.90
2019-05-17T16:26:14.654Z,7.50
2019-05-17T16:27:49.113Z,7.50
2019-05-17T16:29:24.030Z,7.00
2019-05-17T16:30:58.458Z,6.83
2019-05-17T16:32:33.659Z,7.47
2019-05-17T16:34:08.014Z,6.40
2019-05-17T16:35:42.930Z,6.37
2019-05-17T16:37:17.287Z,5.83
2019-05-17T16:38:52.224Z,5.67
2019-05-17T16:40:27.086Z,5.87
2019-05-17T16:42:02.209Z,5.13
2019-05-17T16:43:36.621Z,5.50
2019-05-17T16:45:13.780Z,5.57
2019-05-17T16:46:48.215Z,5.33
2019-05-17T16:48:23.394Z,5.10
2019-05-17T16:49:57.958Z,5.30
2019-05-17T16:51:32.873Z,4.90
2019-05-17T16:53:07.413Z,4.33
2019-05-17T16:54:42.597Z,4.40
2019-05-17T16:56:17.078Z,4.80
2019-05-17T16:57:52.090Z,3.90
2019-05-17T16:59:26.705Z,4.37
2019-05-17T17:01:03.579Z,4.50
2019-05-17T17:02:38.525Z,4.10
2019-05-17T17:04:13.723Z,4.00
2019-05-17T17:05:48.450Z,4.30
2019-05-17T17:07:23.435Z,4.73
2019-05-17T17:08:57.914Z,3.87
2019-05-17T17:10:33.724Z,4.87
2019-05-17T17:12:08.558Z,4.20
2019-05-17T17:13:43.667Z,4.03
2019-05-17T17:15:18.444Z,4.47
2019-05-17T17:16:53.654Z,4.00
2019-05-17T17:18:28.507Z,4.10
2019-05-17T17:20:03.447Z,4.00
2019-05-17T17:21:37.824Z,4.70
2019-05-17T17:23:13.004Z,5.10
2019-05-17T17:24:47.621Z,4.73
2019-05-17T17:26:22.703Z,4.30
2019-05-17T17:27:57.128Z,5.20
2019-05-17T17:29:32.422Z,4.60
2019-05-17T17:31:11.224Z,4.97
2019-05-17T17:32:46.555Z,4.50
2019-05-17T17:34:21.309Z,4.60
2019-05-17T17:35:57.111Z,4.60
2019-05-17T17:37:32.228Z,4.67
2019-05-17T17:39:08.052Z,4.60
2019-05-17T17:40:43.057Z,4.43
2019-05-17T17:42:18.829Z,4.43
2019-05-17T17:43:58.519Z,5.00
2019-05-17T17:45:31.772Z,5.17
2019-05-17T17:47:07.092Z,5.20
2019-05-17T17:48:45.763Z,4.90
2019-05-17T17:50:19.792Z,5.53
2019-05-17T17:51:55.570Z,5.60
2019-05-17T17:53:30.782Z,6.00
2019-05-17T17:55:06.403Z,5.30
2019-05-17T17:56:41.416Z,5.27
2019-05-17T17:58:17.247Z,5.20
2019-05-17T17:59:52.208Z,5.00
2019-05-17T18:01:28.321Z,5.20
2019-05-17T18:03:03.282Z,5.37
2019-05-17T18:04:38.635Z,5.33
2019-05-17T18:06:13.604Z,5.10
2019-05-17T18:07:48.965Z,5.40
2019-05-17T18:09:24.341Z,5.33
2019-05-17T18:10:59.685Z,5.30
2019-05-17T18:12:35.186Z,5.20
2019-05-17T18:14:13.378Z,4.73
2019-05-17T18:15:50.352Z,5.37
2019-05-17T18:17:25.479Z,5.63
2019-05-17T18:19:00.687Z,5.67
2019-05-17T18:20:36.875Z,5.53
2019-05-17T18:22:11.871Z,5.67
2019-05-17T18:23:46.827Z,6.13
2019-05-17T18:25:21.657Z,6.23
2019-05-17T18:26:57.186Z,5.97
2019-05-17T18:28:32.642Z,6.07
2019-05-17T18:30:08.498Z,5.30
2019-05-17T18:31:43.754Z,6.00
2019-05-17T18:33:19.288Z,5.43
2019-05-17T18:34:54.412Z,5.77
2019-05-17T18:36:30.470Z,5.40
2019-05-17T18:38:06.387Z,5.67
2019-05-17T18:39:41.932Z,5.63
2019-05-17T18:41:17.204Z,5.87
2019-05-17T18:42:52.325Z,6.13
2019-05-17T18:44:28.106Z,6.03
2019-05-17T18:46:03.765Z,5.67
2019-05-17T18:47:38.161Z,6.33
2019-05-17T18:49:13.958Z,5.77
2019-05-17T18:50:48.930Z,6.00
2019-05-17T18:52:24.393Z,6.10
2019-05-17T18:53:59.736Z,6.00
2019-05-17T18:55:36.541Z,6.17
2019-05-17T18:57:11.895Z,6.20
2019-05-17T18:58:47.155Z,5.80
2019-05-17T19:00:22.088Z,6.23
2019-05-17T19:01:57.808Z,6.40
2019-05-17T19:03:32.563Z,6.10
2019-05-17T19:05:09.493Z,6.67
2019-05-17T19:06:43.922Z,6.50
2019-05-17T19:08:18.917Z,6.73
2019-05-17T19:09:53.362Z,6.20
2019-05-17T19:11:28.300Z,6.47
2019-05-17T19:13:02.770Z,6.47
2019-05-17T19:14:42.829Z,6.80
2019-05-17T19:16:14.129Z,6.53
2019-05-17T19:17:49.133Z,7.17
2019-05-17T19:19:23.527Z,6.33
2019-05-17T19:20:58.459Z,6.83
2019-05-17T19:22:32.826Z,6.90
2019-05-17T19:24:08.017Z,6.97
2019-05-17T19:25:42.752Z,6.80
2019-05-17T19:27:18.097Z,7.20
2019-05-17T19:28:52.528Z,7.13
2019-05-17T19:30:27.557Z,7.00
2019-05-17T19:32:01.952Z,7.63
2019-05-17T19:33:37.274Z,7.10
2019-05-17T19:35:12.209Z,7.57
2019-05-17T19:36:47.128Z,7.23
2019-05-17T19:38:21.895Z,7.50
2019-05-17T19:39:57.071Z,7.17
2019-05-17T19:41:31.516Z,7.07
2019-05-17T19:43:06.432Z,7.47
2019-05-17T19:44:40.795Z,7.43
2019-05-17T19:46:15.750Z,7.70
2019-05-17T19:47:50.297Z,7.47
2019-05-17T19:49:25.350Z,8.10
2019-05-17T19:50:59.994Z,7.23
2019-05-17T19:52:35.154Z,7.87
2019-05-17T19:54:09.894Z,7.90
2019-05-17T19:55:44.863Z,7.73
2019-05-17T19:57:19.608Z,8.10
2019-05-17T20:01:40.929Z,8.37
2019-05-17T20:03:15.874Z,8.23
2019-05-17T20:04:50.599Z,8.30
2019-05-17T20:06:25.875Z,8.83
2019-05-17T20:08:00.535Z,8.57
2019-05-17T20:09:35.569Z,8.30
2019-05-17T20:11:10.290Z,8.50
2019-05-17T20:12:45.259Z,8.43
2019-05-17T20:14:20.031Z,8.20
2019-05-17T20:15:54.953Z,8.23
2019-05-17T20:17:29.339Z,8.30
2019-05-17T20:19:04.340Z,8.90
2019-05-17T20:20:38.722Z,10.03
2019-05-17T20:22:13.662Z,8.67
2019-05-17T20:23:48.360Z,8.67
2019-05-17T20:25:23.609Z,8.80
2019-05-17T20:26:58.019Z,8.20
2019-05-17T20:28:33.236Z,7.97
2019-05-17T20:30:08.374Z,8.00
2019-05-17T20:31:43.368Z,7.53
2019-05-17T20:33:17.772Z,8.40
2019-05-17T20:34:53.154Z,7.70
2019-05-17T20:36:58.957Z,8.00
2019-05-17T20:38:34.229Z,8.83
2019-05-17T20:40:09.939Z,8.93
2019-05-17T20:41:45.207Z,9.00
2019-05-17T20:43:19.598Z,9.57
2019-05-17T20:44:54.529Z,9.50
2019-05-17T20:46:31.702Z,10.00
2019-05-17T20:48:07.062Z,10.20